sensor_id;sensor_type;location;lat;lon;timestamp;temperature;humidity
997;DHT22;487;50.126;8.698;2023-02-28T00:01:41;2.10;99.90
997;DHT22;487;50.126;8.698;2023-02-28T00:04:09;2.10;99.90
997;DHT22;487;50.126;8.698;2023-02-28T00:06:37;2.10;99.90
997;DHT22;487;50.126;8.698;2023-02-28T00:09:06;2.10;99.90
997;DHT22;487;50.126;8.698;2023-02-28T00:11:34;2.10;99.90
997;DHT22;487;50.126;8.698;2023-02-28T00:14:04;2.10;99.90
997;DHT22;487;50.126;8.698;2023-02-28T00:16:32;2.10;99.90
997;DHT22;487;50.126;8.698;2023-02-28T00:19:00;2.10;99.90
997;DHT22;487;50.126;8.698;2023-02-28T00:21:28;2.00;99.90
997;DHT22;487;50.126;8.698;2023-02-28T00:23:56;2.00;99.90
997;DHT22;487;50.126;8.698;2023-02-28T00:26:25;2.00;99.90
997;DHT22;487;50.126;8.698;2023-02-28T00:28:53;2.00;99.90
997;DHT22;487;50.126;8.698;2023-02-28T00:31:21;1.90;99.90
997;DHT22;487;50.126;8.698;2023-02-28T00:33:49;1.90;99.90
997;DHT22;487;50.126;8.698;2023-02-28T00:36:18;1.90;99.90
997;DHT22;487;50.126;8.698;2023-02-28T00:38:46;1.80;99.90
997;DHT22;487;50.126;8.698;2023-02-28T00:41:13;1.90;99.90
997;DHT22;487;50.126;8.698;2023-02-28T00:43:43;1.90;99.90
997;DHT22;487;50.126;8.698;2023-02-28T00:46:10;1.80;99.90
997;DHT22;487;50.126;8.698;2023-02-28T00:48:38;1.70;99.90
997;DHT22;487;50.126;8.698;2023-02-28T00:51:06;1.60;99.90
997;DHT22;487;50.126;8.698;2023-02-28T00:53:34;1.60;99.90
997;DHT22;487;50.126;8.698;2023-02-28T00:56:02;1.60;99.90
997;DHT22;487;50.126;8.698;2023-02-28T00:58:30;1.60;99.90
997;DHT22;487;50.126;8.698;2023-02-28T05:02:54;0.20;99.90
997;DHT22;487;50.126;8.698;2023-02-28T05:05:22;0.20;99.90
997;DHT22;487;50.126;8.698;2023-02-28T05:07:50;2.40;99.90
997;DHT22;487;50.126;8.698;2023-02-28T05:10:20;0.10;99.90
997;DHT22;487;50.126;8.698;2023-02-28T05:12:47;0.10;99.90
997;DHT22;487;50.126;8.698;2023-02-28T05:15:16;0.00;99.90
997;DHT22;487;50.126;8.698;2023-02-28T05:17:44;0.10;99.90
997;DHT22;487;50.126;8.698;2023-02-28T05:20:13;0.10;99.90
997;DHT22;487;50.126;8.698;2023-02-28T05:22:42;0.10;99.90
997;DHT22;487;50.126;8.698;2023-02-28T05:25:13;0.10;99.90
997;DHT22;487;50.126;8.698;2023-02-28T05:27:41;0.10;99.90
997;DHT22;487;50.126;8.698;2023-02-28T05:30:10;0.20;99.90
997;DHT22;487;50.126;8.698;2023-02-28T05:32:39;0.20;99.90
997;DHT22;487;50.126;8.698;2023-02-28T05:35:10;0.20;99.90
997;DHT22;487;50.126;8.698;2023-02-28T05:37:39;0.20;99.90
997;DHT22;487;50.126;8.698;2023-02-28T05:40:08;0.20;99.90
997;DHT22;487;50.126;8.698;2023-02-28T05:42:37;0.10;99.90
997;DHT22;487;50.126;8.698;2023-02-28T05:45:06;0.20;99.90
997;DHT22;487;50.126;8.698;2023-02-28T05:47:34;0.20;99.90
997;DHT22;487;50.126;8.698;2023-02-28T05:50:03;0.20;99.90
997;DHT22;487;50.126;8.698;2023-02-28T05:52:31;0.10;99.90
997;DHT22;487;50.126;8.698;2023-02-28T05:55:00;0.10;99.90
997;DHT22;487;50.126;8.698;2023-02-28T05:57:28;0.10;99.90
997;DHT22;487;50.126;8.698;2023-02-28T05:59:56;0.10;99.90
997;DHT22;487;50.126;8.698;2023-02-28T06:02:24;0.10;99.90
997;DHT22;487;50.126;8.698;2023-02-28T06:04:52;0.10;99.90
997;DHT22;487;50.126;8.698;2023-02-28T06:07:20;0.10;99.90
997;DHT22;487;50.126;8.698;2023-02-28T06:09:48;0.10;99.90
997;DHT22;487;50.126;8.698;2023-02-28T06:12:18;0.10;99.90
997;DHT22;487;50.126;8.698;2023-02-28T06:14:45;0.10;99.90
997;DHT22;487;50.126;8.698;2023-02-28T06:17:13;0.10;99.90
997;DHT22;487;50.126;8.698;2023-02-28T06:19:41;0.00;99.90
997;DHT22;487;50.126;8.698;2023-02-28T06:22:09;0.00;99.90
997;DHT22;487;50.126;8.698;2023-02-28T06:24:37;0.10;99.90
997;DHT22;487;50.126;8.698;2023-02-28T06:27:04;0.10;99.90
997;DHT22;487;50.126;8.698;2023-02-28T06:29:34;0.10;99.90
997;DHT22;487;50.126;8.698;2023-02-28T06:32:02;0.10;99.90
997;DHT22;487;50.126;8.698;2023-02-28T06:34:30;0.10;99.90
997;DHT22;487;50.126;8.698;2023-02-28T06:37:00;0.10;99.90
997;DHT22;487;50.126;8.698;2023-02-28T06:39:29;0.20;99.90
997;DHT22;487;50.126;8.698;2023-02-28T06:44:25;0.10;99.90
997;DHT22;487;50.126;8.698;2023-02-28T06:46:54;0.10;99.90
997;DHT22;487;50.126;8.698;2023-02-28T06:49:21;0.10;99.90
997;DHT22;487;50.126;8.698;2023-02-28T06:51:49;0.20;99.90
997;DHT22;487;50.126;8.698;2023-02-28T06:54:17;0.20;99.90
997;DHT22;487;50.126;8.698;2023-02-28T06:56:45;0.20;99.90
997;DHT22;487;50.126;8.698;2023-02-28T06:59:14;0.20;99.90
997;DHT22;487;50.126;8.698;2023-02-28T07:01:42;0.30;99.90
997;DHT22;487;50.126;8.698;2023-02-28T07:04:11;0.40;99.90
997;DHT22;487;50.126;8.698;2023-02-28T07:06:39;0.30;99.90
997;DHT22;487;50.126;8.698;2023-02-28T07:09:07;0.40;99.90
997;DHT22;487;50.126;8.698;2023-02-28T07:11:35;0.40;99.90
997;DHT22;487;50.126;8.698;2023-02-28T07:14:03;0.50;99.90
997;DHT22;487;50.126;8.698;2023-02-28T07:16:31;0.50;99.90
997;DHT22;487;50.126;8.698;2023-02-28T07:18:59;0.50;99.90
997;DHT22;487;50.126;8.698;2023-02-28T07:21:29;0.50;99.90
997;DHT22;487;50.126;8.698;2023-02-28T07:26:25;0.60;99.90
997;DHT22;487;50.126;8.698;2023-02-28T07:28:53;0.70;99.90
997;DHT22;487;50.126;8.698;2023-02-28T07:31:21;0.70;99.90
997;DHT22;487;50.126;8.698;2023-02-28T07:33:49;0.80;99.90
997;DHT22;487;50.126;8.698;2023-02-28T07:36:17;0.80;99.90
997;DHT22;487;50.126;8.698;2023-02-28T07:38:48;0.90;99.90
997;DHT22;487;50.126;8.698;2023-02-28T07:41:18;1.70;99.90
997;DHT22;487;50.126;8.698;2023-02-28T07:43:46;1.00;99.90
997;DHT22;487;50.126;8.698;2023-02-28T07:46:16;1.10;99.90
997;DHT22;487;50.126;8.698;2023-02-28T07:48:44;1.20;99.90
997;DHT22;487;50.126;8.698;2023-02-28T07:51:12;1.30;99.90
997;DHT22;487;50.126;8.698;2023-02-28T07:53:40;1.30;99.90
997;DHT22;487;50.126;8.698;2023-02-28T07:56:09;1.40;99.90
997;DHT22;487;50.126;8.698;2023-02-28T07:58:38;1.50;99.90
997;DHT22;487;50.126;8.698;2023-02-28T08:03:34;1.40;99.90
997;DHT22;487;50.126;8.698;2023-02-28T08:06:03;1.40;99.90
997;DHT22;487;50.126;8.698;2023-02-28T08:08:31;1.50;99.90
997;DHT22;487;50.126;8.698;2023-02-28T08:11:00;1.50;99.90
997;DHT22;487;50.126;8.698;2023-02-28T08:13:29;1.60;99.90
997;DHT22;487;50.126;8.698;2023-02-28T08:15:58;1.60;99.90
997;DHT22;487;50.126;8.698;2023-02-28T08:18:25;1.70;99.90
997;DHT22;487;50.126;8.698;2023-02-28T08:20:53;1.70;99.90
997;DHT22;487;50.126;8.698;2023-02-28T08:23:21;1.80;99.90
997;DHT22;487;50.126;8.698;2023-02-28T08:25:53;1.90;99.90
997;DHT22;487;50.126;8.698;2023-02-28T08:28:21;2.00;99.90
997;DHT22;487;50.126;8.698;2023-02-28T08:30:54;2.10;99.90
997;DHT22;487;50.126;8.698;2023-02-28T08:33:22;-0.30;99.90
997;DHT22;487;50.126;8.698;2023-02-28T08:35:52;2.20;99.90
997;DHT22;487;50.126;8.698;2023-02-28T08:38:21;2.20;99.90
997;DHT22;487;50.126;8.698;2023-02-28T08:40:49;2.20;99.90
997;DHT22;487;50.126;8.698;2023-02-28T08:43:17;2.20;99.90
997;DHT22;487;50.126;8.698;2023-02-28T08:45:45;2.30;99.90
997;DHT22;487;50.126;8.698;2023-02-28T08:48:14;2.30;99.90
997;DHT22;487;50.126;8.698;2023-02-28T08:53:31;2.50;99.90
997;DHT22;487;50.126;8.698;2023-02-28T08:56:00;2.60;99.90
997;DHT22;487;50.126;8.698;2023-02-28T08:58:28;2.70;99.90
997;DHT22;487;50.126;8.698;2023-02-28T09:00:56;2.70;99.90
997;DHT22;487;50.126;8.698;2023-02-28T09:03:26;2.80;99.90
997;DHT22;487;50.126;8.698;2023-02-28T09:05:55;2.80;99.90
997;DHT22;487;50.126;8.698;2023-02-28T09:08:24;2.80;99.90
997;DHT22;487;50.126;8.698;2023-02-28T09:10:52;2.90;99.90
997;DHT22;487;50.126;8.698;2023-02-28T09:13:21;2.90;99.90
997;DHT22;487;50.126;8.698;2023-02-28T09:15:48;2.90;99.90
997;DHT22;487;50.126;8.698;2023-02-28T09:18:16;2.90;99.90
997;DHT22;487;50.126;8.698;2023-02-28T09:20:46;3.00;99.90
997;DHT22;487;50.126;8.698;2023-02-28T09:23:14;3.00;99.90
997;DHT22;487;50.126;8.698;2023-02-28T09:25:45;3.10;99.90
997;DHT22;487;50.126;8.698;2023-02-28T09:28:14;3.00;99.90
997;DHT22;487;50.126;8.698;2023-02-28T09:30:45;3.00;99.90
997;DHT22;487;50.126;8.698;2023-02-28T09:33:14;3.00;99.90
997;DHT22;487;50.126;8.698;2023-02-28T09:35:43;3.10;99.90
997;DHT22;487;50.126;8.698;2023-02-28T09:38:12;3.20;99.90
997;DHT22;487;50.126;8.698;2023-02-28T09:40:48;3.40;99.90
997;DHT22;487;50.126;8.698;2023-02-28T09:43:19;3.50;99.90
997;DHT22;487;50.126;8.698;2023-02-28T09:45:50;3.60;99.90
997;DHT22;487;50.126;8.698;2023-02-28T09:48:23;3.60;99.90
997;DHT22;487;50.126;8.698;2023-02-28T09:50:59;3.60;99.90
997;DHT22;487;50.126;8.698;2023-02-28T09:53:31;3.60;99.90
997;DHT22;487;50.126;8.698;2023-02-28T09:56:03;3.70;99.90
997;DHT22;487;50.126;8.698;2023-02-28T09:58:37;3.70;99.90
997;DHT22;487;50.126;8.698;2023-02-28T10:01:12;3.80;99.90
997;DHT22;487;50.126;8.698;2023-02-28T10:03:50;3.80;99.90
997;DHT22;487;50.126;8.698;2023-02-28T10:06:27;3.80;99.90
997;DHT22;487;50.126;8.698;2023-02-28T10:09:00;3.90;99.90
997;DHT22;487;50.126;8.698;2023-02-28T10:11:29;4.00;99.90
997;DHT22;487;50.126;8.698;2023-02-28T10:14:01;4.10;99.90
997;DHT22;487;50.126;8.698;2023-02-28T10:16:34;4.00;99.90
997;DHT22;487;50.126;8.698;2023-02-28T10:19:06;4.20;99.90
997;DHT22;487;50.126;8.698;2023-02-28T10:21:41;4.20;99.90
997;DHT22;487;50.126;8.698;2023-02-28T10:24:19;4.40;99.90
997;DHT22;487;50.126;8.698;2023-02-28T10:26:48;4.40;99.90
997;DHT22;487;50.126;8.698;2023-02-28T10:29:16;4.50;99.90
997;DHT22;487;50.126;8.698;2023-02-28T10:31:44;4.60;99.90
997;DHT22;487;50.126;8.698;2023-02-28T10:34:13;4.70;99.90
997;DHT22;487;50.126;8.698;2023-02-28T10:36:41;4.70;99.90
997;DHT22;487;50.126;8.698;2023-02-28T10:39:38;4.90;99.90
997;DHT22;487;50.126;8.698;2023-02-28T10:42:20;5.00;99.90
997;DHT22;487;50.126;8.698;2023-02-28T10:44:48;5.00;99.90
997;DHT22;487;50.126;8.698;2023-02-28T10:47:17;5.10;99.90
997;DHT22;487;50.126;8.698;2023-02-28T10:49:49;5.20;99.90
997;DHT22;487;50.126;8.698;2023-02-28T10:52:33;5.20;99.90
997;DHT22;487;50.126;8.698;2023-02-28T10:55:21;5.10;99.90
997;DHT22;487;50.126;8.698;2023-02-28T10:57:49;5.10;99.90
997;DHT22;487;50.126;8.698;2023-02-28T11:00:19;5.00;99.90
997;DHT22;487;50.126;8.698;2023-02-28T11:02:48;5.00;99.90
997;DHT22;487;50.126;8.698;2023-02-28T11:05:25;5.00;99.90
997;DHT22;487;50.126;8.698;2023-02-28T11:07:54;5.10;99.90
997;DHT22;487;50.126;8.698;2023-02-28T11:10:26;5.10;99.90
997;DHT22;487;50.126;8.698;2023-02-28T11:12:56;5.10;99.90
997;DHT22;487;50.126;8.698;2023-02-28T11:15:28;5.30;99.90
997;DHT22;487;50.126;8.698;2023-02-28T11:17:58;5.30;99.90
997;DHT22;487;50.126;8.698;2023-02-28T11:20:30;5.30;99.90
997;DHT22;487;50.126;8.698;2023-02-28T11:22:59;5.40;99.90
997;DHT22;487;50.126;8.698;2023-02-28T11:25:31;5.40;99.90
997;DHT22;487;50.126;8.698;2023-02-28T11:28:00;5.40;99.90
997;DHT22;487;50.126;8.698;2023-02-28T11:30:34;5.40;99.90
997;DHT22;487;50.126;8.698;2023-02-28T11:33:20;5.20;99.90
997;DHT22;487;50.126;8.698;2023-02-28T11:35:50;5.00;99.90
997;DHT22;487;50.126;8.698;2023-02-28T11:38:18;4.80;99.90
997;DHT22;487;50.126;8.698;2023-02-28T11:40:58;4.80;99.90
997;DHT22;487;50.126;8.698;2023-02-28T11:43:52;4.70;99.90
997;DHT22;487;50.126;8.698;2023-02-28T11:46:29;4.80;99.90
997;DHT22;487;50.126;8.698;2023-02-28T11:49:03;4.90;99.90
997;DHT22;487;50.126;8.698;2023-02-28T11:51:40;5.00;99.90
997;DHT22;487;50.126;8.698;2023-02-28T11:54:23;5.10;99.90
997;DHT22;487;50.126;8.698;2023-02-28T11:57:00;5.00;99.90
997;DHT22;487;50.126;8.698;2023-02-28T11:59:44;5.20;99.90
997;DHT22;487;50.126;8.698;2023-02-28T12:02:23;5.20;99.90
997;DHT22;487;50.126;8.698;2023-02-28T12:05:01;5.30;99.90
997;DHT22;487;50.126;8.698;2023-02-28T12:07:40;5.30;99.90
997;DHT22;487;50.126;8.698;2023-02-28T12:10:20;5.40;99.90
997;DHT22;487;50.126;8.698;2023-02-28T12:13:03;5.30;99.90
997;DHT22;487;50.126;8.698;2023-02-28T12:21:41;5.50;99.90
997;DHT22;487;50.126;8.698;2023-02-28T12:24:33;5.60;99.90
997;DHT22;487;50.126;8.698;2023-02-28T12:27:09;5.60;99.90
997;DHT22;487;50.126;8.698;2023-02-28T12:29:46;5.70;99.90
997;DHT22;487;50.126;8.698;2023-02-28T12:32:18;5.80;99.90
997;DHT22;487;50.126;8.698;2023-02-28T12:34:52;5.80;99.90
997;DHT22;487;50.126;8.698;2023-02-28T12:37:25;5.80;99.90
997;DHT22;487;50.126;8.698;2023-02-28T12:39:59;5.90;99.90
997;DHT22;487;50.126;8.698;2023-02-28T12:42:32;5.90;99.90
997;DHT22;487;50.126;8.698;2023-02-28T12:45:10;5.90;99.90
997;DHT22;487;50.126;8.698;2023-02-28T12:47:41;5.90;99.90
997;DHT22;487;50.126;8.698;2023-02-28T12:50:11;5.80;99.90
997;DHT22;487;50.126;8.698;2023-02-28T12:52:46;5.80;99.90
997;DHT22;487;50.126;8.698;2023-02-28T12:55:20;5.80;99.90
997;DHT22;487;50.126;8.698;2023-02-28T12:57:54;5.90;99.90
997;DHT22;487;50.126;8.698;2023-02-28T13:00:31;5.90;99.90
997;DHT22;487;50.126;8.698;2023-02-28T13:03:26;5.90;99.90
997;DHT22;487;50.126;8.698;2023-02-28T13:06:19;5.90;99.90
997;DHT22;487;50.126;8.698;2023-02-28T13:09:03;5.90;99.90
997;DHT22;487;50.126;8.698;2023-02-28T13:11:34;5.80;99.90
997;DHT22;487;50.126;8.698;2023-02-28T13:14:19;5.90;99.90
997;DHT22;487;50.126;8.698;2023-02-28T13:16:59;6.00;99.90
997;DHT22;487;50.126;8.698;2023-02-28T13:19:29;6.00;99.90
997;DHT22;487;50.126;8.698;2023-02-28T13:21:58;5.90;99.90
997;DHT22;487;50.126;8.698;2023-02-28T13:27:32;5.70;99.90
997;DHT22;487;50.126;8.698;2023-02-28T13:30:02;5.80;99.90
997;DHT22;487;50.126;8.698;2023-02-28T13:33:22;5.70;99.90
997;DHT22;487;50.126;8.698;2023-02-28T13:36:07;5.90;99.90
997;DHT22;487;50.126;8.698;2023-02-28T13:38:41;6.00;99.90
997;DHT22;487;50.126;8.698;2023-02-28T13:44:23;5.90;99.90
997;DHT22;487;50.126;8.698;2023-02-28T13:47:21;5.90;99.90
997;DHT22;487;50.126;8.698;2023-02-28T13:49:53;5.80;99.90
997;DHT22;487;50.126;8.698;2023-02-28T13:52:23;5.80;99.90
997;DHT22;487;50.126;8.698;2023-02-28T13:54:58;5.90;99.90
997;DHT22;487;50.126;8.698;2023-02-28T13:57:44;5.90;99.90
997;DHT22;487;50.126;8.698;2023-02-28T14:00:27;5.80;99.90
997;DHT22;487;50.126;8.698;2023-02-28T14:05:44;5.90;99.90
997;DHT22;487;50.126;8.698;2023-02-28T14:08:16;6.00;99.90
997;DHT22;487;50.126;8.698;2023-02-28T14:10:49;5.90;99.90
997;DHT22;487;50.126;8.698;2023-02-28T14:13:39;5.90;99.90
997;DHT22;487;50.126;8.698;2023-02-28T14:16:13;6.00;99.90
997;DHT22;487;50.126;8.698;2023-02-28T14:18:49;6.00;99.90
997;DHT22;487;50.126;8.698;2023-02-28T14:21:23;6.00;99.90
997;DHT22;487;50.126;8.698;2023-02-28T14:27:28;6.00;99.90
997;DHT22;487;50.126;8.698;2023-02-28T14:30:43;6.00;99.90
997;DHT22;487;50.126;8.698;2023-02-28T14:33:42;5.90;99.90
997;DHT22;487;50.126;8.698;2023-02-28T14:36:18;6.00;99.90
997;DHT22;487;50.126;8.698;2023-02-28T14:38:52;5.90;99.90
997;DHT22;487;50.126;8.698;2023-02-28T14:41:30;5.80;99.90
997;DHT22;487;50.126;8.698;2023-02-28T14:43:59;5.80;99.90
997;DHT22;487;50.126;8.698;2023-02-28T14:46:33;5.80;99.90
997;DHT22;487;50.126;8.698;2023-02-28T14:49:04;5.80;99.90
997;DHT22;487;50.126;8.698;2023-02-28T14:51:33;5.80;99.90
997;DHT22;487;50.126;8.698;2023-02-28T14:54:03;5.90;99.90
997;DHT22;487;50.126;8.698;2023-02-28T14:56:34;5.90;99.90
997;DHT22;487;50.126;8.698;2023-02-28T14:59:03;5.90;99.90
997;DHT22;487;50.126;8.698;2023-02-28T15:01:31;5.20;99.90
997;DHT22;487;50.126;8.698;2023-02-28T15:04:02;6.00;99.90
997;DHT22;487;50.126;8.698;2023-02-28T15:06:31;6.00;99.90
997;DHT22;487;50.126;8.698;2023-02-28T15:09:15;6.00;99.90
997;DHT22;487;50.126;8.698;2023-02-28T15:11:46;6.10;99.90
997;DHT22;487;50.126;8.698;2023-02-28T15:14:17;6.10;99.90
997;DHT22;487;50.126;8.698;2023-02-28T15:16:50;6.10;99.90
997;DHT22;487;50.126;8.698;2023-02-28T15:19:22;6.00;99.90
997;DHT22;487;50.126;8.698;2023-02-28T15:21:54;6.10;99.90
997;DHT22;487;50.126;8.698;2023-02-28T15:24:30;6.10;99.90
997;DHT22;487;50.126;8.698;2023-02-28T15:27:01;6.10;99.90
997;DHT22;487;50.126;8.698;2023-02-28T15:29:34;6.10;99.90
997;DHT22;487;50.126;8.698;2023-02-28T15:32:07;6.00;99.90
997;DHT22;487;50.126;8.698;2023-02-28T15:34:36;6.00;99.90
997;DHT22;487;50.126;8.698;2023-02-28T15:37:33;6.00;99.90
997;DHT22;487;50.126;8.698;2023-02-28T15:40:12;5.90;99.90
997;DHT22;487;50.126;8.698;2023-02-28T15:42:40;6.00;99.90
997;DHT22;487;50.126;8.698;2023-02-28T15:45:44;6.00;99.90
997;DHT22;487;50.126;8.698;2023-02-28T15:48:17;6.10;99.90
997;DHT22;487;50.126;8.698;2023-02-28T15:50:48;6.20;99.90
997;DHT22;487;50.126;8.698;2023-02-28T15:53:21;6.20;99.90
997;DHT22;487;50.126;8.698;2023-02-28T15:55:59;6.10;99.90
997;DHT22;487;50.126;8.698;2023-02-28T15:58:29;6.20;99.90
997;DHT22;487;50.126;8.698;2023-02-28T16:01:19;6.00;99.90
997;DHT22;487;50.126;8.698;2023-02-28T16:03:48;5.90;99.90
997;DHT22;487;50.126;8.698;2023-02-28T16:06:39;6.00;99.90
997;DHT22;487;50.126;8.698;2023-02-28T16:09:11;6.00;99.90
997;DHT22;487;50.126;8.698;2023-02-28T16:11:43;6.00;99.90
997;DHT22;487;50.126;8.698;2023-02-28T16:14:16;5.90;99.90
997;DHT22;487;50.126;8.698;2023-02-28T16:16:45;5.90;99.90
997;DHT22;487;50.126;8.698;2023-02-28T16:19:14;5.90;99.90
997;DHT22;487;50.126;8.698;2023-02-28T16:21:41;5.90;99.90
997;DHT22;487;50.126;8.698;2023-02-28T16:24:09;5.90;99.90
997;DHT22;487;50.126;8.698;2023-02-28T16:26:38;5.90;99.90
997;DHT22;487;50.126;8.698;2023-02-28T16:29:09;5.90;99.90
997;DHT22;487;50.126;8.698;2023-02-28T16:31:41;5.90;99.90
997;DHT22;487;50.126;8.698;2023-02-28T16:34:08;6.10;99.90
997;DHT22;487;50.126;8.698;2023-02-28T16:36:36;6.10;99.90
997;DHT22;487;50.126;8.698;2023-02-28T16:39:04;6.20;99.90
997;DHT22;487;50.126;8.698;2023-02-28T16:41:34;6.40;99.90
997;DHT22;487;50.126;8.698;2023-02-28T16:47:02;6.80;99.90
997;DHT22;487;50.126;8.698;2023-02-28T16:49:30;6.60;99.90
997;DHT22;487;50.126;8.698;2023-02-28T16:51:58;6.50;99.90
997;DHT22;487;50.126;8.698;2023-02-28T16:54:26;6.50;99.90
997;DHT22;487;50.126;8.698;2023-02-28T16:56:54;6.50;99.90
997;DHT22;487;50.126;8.698;2023-02-28T16:59:23;6.40;99.90
997;DHT22;487;50.126;8.698;2023-02-28T17:01:51;6.30;99.90
997;DHT22;487;50.126;8.698;2023-02-28T17:04:21;5.90;99.90
997;DHT22;487;50.126;8.698;2023-02-28T17:06:49;5.80;99.90
997;DHT22;487;50.126;8.698;2023-02-28T17:09:19;5.50;99.90
997;DHT22;487;50.126;8.698;2023-02-28T17:11:50;5.30;99.90
997;DHT22;487;50.126;8.698;2023-02-28T17:14:17;4.90;99.90
997;DHT22;487;50.126;8.698;2023-02-28T17:16:45;4.90;99.90
997;DHT22;487;50.126;8.698;2023-02-28T17:19:16;4.80;99.90
997;DHT22;487;50.126;8.698;2023-02-28T17:21:46;4.80;99.90
997;DHT22;487;50.126;8.698;2023-02-28T17:24:14;4.60;99.90
997;DHT22;487;50.126;8.698;2023-02-28T17:26:55;4.60;99.90
997;DHT22;487;50.126;8.698;2023-02-28T17:29:23;4.50;99.90
997;DHT22;487;50.126;8.698;2023-02-28T17:31:51;4.50;99.90
997;DHT22;487;50.126;8.698;2023-02-28T17:34:19;4.50;99.90
997;DHT22;487;50.126;8.698;2023-02-28T17:36:50;4.50;99.90
997;DHT22;487;50.126;8.698;2023-02-28T17:39:19;4.40;99.90
997;DHT22;487;50.126;8.698;2023-02-28T17:41:51;4.30;99.90
997;DHT22;487;50.126;8.698;2023-02-28T17:44:19;4.30;99.90
997;DHT22;487;50.126;8.698;2023-02-28T17:46:47;4.30;99.90
997;DHT22;487;50.126;8.698;2023-02-28T17:49:17;4.30;99.90
997;DHT22;487;50.126;8.698;2023-02-28T17:51:45;4.20;99.90
997;DHT22;487;50.126;8.698;2023-02-28T17:54:15;4.20;99.90
997;DHT22;487;50.126;8.698;2023-02-28T17:56:44;4.20;99.90
997;DHT22;487;50.126;8.698;2023-02-28T17:59:13;4.20;99.90
997;DHT22;487;50.126;8.698;2023-02-28T18:01:40;4.20;99.90
997;DHT22;487;50.126;8.698;2023-02-28T18:04:08;4.10;99.90
997;DHT22;487;50.126;8.698;2023-02-28T18:06:38;4.10;99.90
997;DHT22;487;50.126;8.698;2023-02-28T18:09:16;4.10;99.90
997;DHT22;487;50.126;8.698;2023-02-28T18:11:44;4.00;99.90
997;DHT22;487;50.126;8.698;2023-02-28T18:14:17;4.00;99.90
997;DHT22;487;50.126;8.698;2023-02-28T18:16:45;4.00;99.90
997;DHT22;487;50.126;8.698;2023-02-28T18:19:14;4.00;99.90
997;DHT22;487;50.126;8.698;2023-02-28T18:21:44;3.90;99.90
997;DHT22;487;50.126;8.698;2023-02-28T18:24:13;3.80;99.90
997;DHT22;487;50.126;8.698;2023-02-28T18:26:43;3.80;99.90
997;DHT22;487;50.126;8.698;2023-02-28T18:29:16;3.80;99.90
997;DHT22;487;50.126;8.698;2023-02-28T18:31:44;3.80;99.90
997;DHT22;487;50.126;8.698;2023-02-28T18:34:12;3.70;99.90
997;DHT22;487;50.126;8.698;2023-02-28T18:36:40;3.70;99.90
997;DHT22;487;50.126;8.698;2023-02-28T18:39:08;3.70;99.90
997;DHT22;487;50.126;8.698;2023-02-28T18:41:38;3.70;99.90
997;DHT22;487;50.126;8.698;2023-02-28T18:44:07;3.60;99.90
997;DHT22;487;50.126;8.698;2023-02-28T18:46:44;3.50;99.90
997;DHT22;487;50.126;8.698;2023-02-28T18:49:13;3.50;99.90
997;DHT22;487;50.126;8.698;2023-02-28T18:51:40;3.50;99.90
997;DHT22;487;50.126;8.698;2023-02-28T18:54:10;3.40;99.90
997;DHT22;487;50.126;8.698;2023-02-28T18:56:39;3.40;99.90
997;DHT22;487;50.126;8.698;2023-02-28T19:01:36;3.40;99.90
997;DHT22;487;50.126;8.698;2023-02-28T19:04:04;3.30;99.90
997;DHT22;487;50.126;8.698;2023-02-28T19:06:32;3.30;99.90
997;DHT22;487;50.126;8.698;2023-02-28T19:09:02;3.30;99.90
997;DHT22;487;50.126;8.698;2023-02-28T19:11:31;3.20;99.90
997;DHT22;487;50.126;8.698;2023-02-28T19:14:02;3.30;99.90
997;DHT22;487;50.126;8.698;2023-02-28T19:16:31;3.20;99.90
997;DHT22;487;50.126;8.698;2023-02-28T19:18:59;3.20;99.90
997;DHT22;487;50.126;8.698;2023-02-28T19:21:27;3.20;99.90
997;DHT22;487;50.126;8.698;2023-02-28T19:23:54;3.20;99.90
997;DHT22;487;50.126;8.698;2023-02-28T19:26:24;3.10;99.90
997;DHT22;487;50.126;8.698;2023-02-28T19:28:52;3.20;99.90
997;DHT22;487;50.126;8.698;2023-02-28T19:31:21;3.10;99.90
997;DHT22;487;50.126;8.698;2023-02-28T19:33:51;3.10;99.90
997;DHT22;487;50.126;8.698;2023-02-28T19:36:20;3.00;99.90
997;DHT22;487;50.126;8.698;2023-02-28T19:38:49;3.00;99.90
997;DHT22;487;50.126;8.698;2023-02-28T19:41:18;2.90;99.90
997;DHT22;487;50.126;8.698;2023-02-28T19:43:46;2.90;99.90
997;DHT22;487;50.126;8.698;2023-02-28T19:46:14;2.80;99.90
997;DHT22;487;50.126;8.698;2023-02-28T19:48:42;2.80;99.90
997;DHT22;487;50.126;8.698;2023-02-28T19:51:13;2.80;99.90
997;DHT22;487;50.126;8.698;2023-02-28T19:53:46;2.70;99.90
997;DHT22;487;50.126;8.698;2023-02-28T19:56:18;2.70;99.90
997;DHT22;487;50.126;8.698;2023-02-28T19:58:46;3.70;99.90
997;DHT22;487;50.126;8.698;2023-02-28T20:01:16;2.70;99.90
997;DHT22;487;50.126;8.698;2023-02-28T20:03:46;2.60;99.90
997;DHT22;487;50.126;8.698;2023-02-28T20:06:16;2.60;99.90
997;DHT22;487;50.126;8.698;2023-02-28T20:08:44;2.50;99.90
997;DHT22;487;50.126;8.698;2023-02-28T20:11:14;2.50;99.90
997;DHT22;487;50.126;8.698;2023-02-28T20:13:43;2.50;99.90
997;DHT22;487;50.126;8.698;2023-02-28T20:16:12;2.50;99.90
997;DHT22;487;50.126;8.698;2023-02-28T20:18:40;2.40;99.90
997;DHT22;487;50.126;8.698;2023-02-28T20:21:10;2.40;99.90
997;DHT22;487;50.126;8.698;2023-02-28T20:23:40;2.40;99.90
997;DHT22;487;50.126;8.698;2023-02-28T20:26:09;2.40;99.90
997;DHT22;487;50.126;8.698;2023-02-28T20:28:37;2.30;99.90
997;DHT22;487;50.126;8.698;2023-02-28T20:31:09;2.30;99.90
997;DHT22;487;50.126;8.698;2023-02-28T20:33:39;2.30;99.90
997;DHT22;487;50.126;8.698;2023-02-28T20:36:07;2.30;99.90
997;DHT22;487;50.126;8.698;2023-02-28T20:38:35;2.30;99.90
997;DHT22;487;50.126;8.698;2023-02-28T20:41:05;2.30;99.90
997;DHT22;487;50.126;8.698;2023-02-28T20:43:33;2.20;99.90
997;DHT22;487;50.126;8.698;2023-02-28T20:46:00;2.20;99.90
997;DHT22;487;50.126;8.698;2023-02-28T20:48:29;2.20;99.90
997;DHT22;487;50.126;8.698;2023-02-28T20:50:58;2.20;99.90
997;DHT22;487;50.126;8.698;2023-02-28T20:53:27;2.20;99.90
997;DHT22;487;50.126;8.698;2023-02-28T20:55:56;2.20;99.90
997;DHT22;487;50.126;8.698;2023-02-28T20:58:27;2.20;99.90
997;DHT22;487;50.126;8.698;2023-02-28T21:00:59;2.20;99.90
997;DHT22;487;50.126;8.698;2023-02-28T21:03:27;2.20;99.90
997;DHT22;487;50.126;8.698;2023-02-28T21:06:00;2.10;99.90
997;DHT22;487;50.126;8.698;2023-02-28T21:08:28;2.10;99.90
997;DHT22;487;50.126;8.698;2023-02-28T21:10:56;2.10;99.90
997;DHT22;487;50.126;8.698;2023-02-28T21:13:25;2.10;99.90
997;DHT22;487;50.126;8.698;2023-02-28T21:15:53;2.10;99.90
997;DHT22;487;50.126;8.698;2023-02-28T21:18:21;2.00;99.90
997;DHT22;487;50.126;8.698;2023-02-28T21:23:17;2.10;99.90
997;DHT22;487;50.126;8.698;2023-02-28T21:25:45;2.00;99.90
997;DHT22;487;50.126;8.698;2023-02-28T21:28:12;2.00;99.90
997;DHT22;487;50.126;8.698;2023-02-28T21:30:42;2.00;99.90
997;DHT22;487;50.126;8.698;2023-02-28T21:33:10;2.00;99.90
997;DHT22;487;50.126;8.698;2023-02-28T21:35:37;2.00;99.90
997;DHT22;487;50.126;8.698;2023-02-28T21:38:05;2.10;99.90
997;DHT22;487;50.126;8.698;2023-02-28T21:43:01;2.00;99.90
997;DHT22;487;50.126;8.698;2023-02-28T21:45:29;2.00;99.90
997;DHT22;487;50.126;8.698;2023-02-28T21:47:59;2.00;99.90
997;DHT22;487;50.126;8.698;2023-02-28T21:50:26;1.90;99.90
997;DHT22;487;50.126;8.698;2023-02-28T21:52:54;1.90;99.90
997;DHT22;487;50.126;8.698;2023-02-28T21:55:22;1.90;99.90
997;DHT22;487;50.126;8.698;2023-02-28T21:57:50;1.80;99.90
997;DHT22;487;50.126;8.698;2023-02-28T22:00:19;1.80;99.90